Time;durP1;ratioP1;P1;durP2;ratioP2;P2;SDS_P1;SDS_P2;PMS_P1;PMS_P2;Temp;Humidity;BMP_temperature;BMP_pressure;BME280_temperature;BME280_humidity;BME280_pressure;Samples;Min_cycle;Max_cycle;Signal;HPM_P1;HPM_P2
2023/10/20 00:00:07;;;;;;;;;1.80;1.80;;;;;;;;5072160;28;8847;-86
2023/10/20 00:02:35;;;;;;;;;2.60;1.00;;;;;;;;5071389;28;8827;-86
2023/10/20 00:05:05;;;;;;;;;1.00;1.00;;;;;;;;5071945;28;8853;-86
2023/10/20 00:07:33;;;;;;;;;1.60;1.60;;;;;;;;5072387;28;8907;-87
2023/10/20 00:10:00;;;;;;;;;1.00;1.00;;;;;;;;5059633;28;8960;-87
2023/10/20 00:12:28;;;;;;;;;0.80;0.80;;;;;;;;5074873;28;8890;-86
2023/10/20 00:14:55;;;;;;;;;2.20;2.00;;;;;;;;5073750;28;8862;-87
2023/10/20 00:17:23;;;;;;;;;1.20;1.20;;;;;;;;5077151;28;8883;-86
2023/10/20 00:19:51;;;;;;;;;2.00;2.00;;;;;;;;5075630;28;8858;-86
2023/10/20 00:22:18;;;;;;;;;1.40;1.40;;;;;;;;5076934;28;8882;-85
2023/10/20 00:24:47;;;;;;;;;2.00;2.00;;;;;;;;5078102;28;8850;-85
2023/10/20 00:27:14;;;;;;;;;0.80;0.80;;;;;;;;5079318;28;8854;-86
2023/10/20 00:29:42;;;;;;;;;1.00;1.00;;;;;;;;5075933;28;8854;-89
2023/10/20 00:32:10;;;;;;;;;1.20;1.20;;;;;;;;5071728;28;8849;-85
2023/10/20 00:34:38;;;;;;;;;0.80;0.80;;;;;;;;5070349;28;8905;-87
2023/10/20 00:37:06;;;;;;;;;1.80;1.80;;;;;;;;5071619;28;8981;-88
2023/10/20 00:39:35;;;;;;;;;2.00;1.00;;;;;;;;5071424;28;8866;-90
2023/10/20 00:42:04;;;;;;;;;2.40;1.60;;;;;;;;5070514;28;8846;-85
2023/10/20 00:44:31;;;;;;;;;2.20;2.20;;;;;;;;5074661;28;8878;-87
2023/10/20 00:46:59;;;;;;;;;1.80;1.80;;;;;;;;5076706;28;8986;-88
2023/10/20 00:49:26;;;;;;;;;2.00;2.00;;;;;;;;5071269;28;8866;-91
2023/10/20 00:51:54;;;;;;;;;1.80;1.80;;;;;;;;5071215;28;8861;-91
2023/10/20 00:54:22;;;;;;;;;2.00;2.00;;;;;;;;5071419;28;8862;-93
2023/10/20 00:56:49;;;;;;;;;2.00;2.00;;;;;;;;5071112;28;8978;-88
2023/10/20 00:59:20;;;;;;;;;3.00;0.60;;;;;;;;5071522;28;8862;-88
2023/10/20 01:01:49;;;;;;;;;0.80;0.80;;;;;;;;5069949;28;8832;-88
2023/10/20 01:04:20;;;;;;;;;0.80;0.80;;;;;;;;5071484;28;8827;-91
2023/10/20 01:06:49;;;;;;;;;2.00;2.00;;;;;;;;5068442;28;8870;-91
2023/10/20 01:09:24;;;;;;;;;2.20;2.20;;;;;;;;5072466;28;8873;-88
2023/10/20 01:11:51;;;;;;;;;2.00;2.00;;;;;;;;5075826;28;8966;-88
2023/10/20 01:14:20;;;;;;;;;1.20;1.20;;;;;;;;5072865;28;8866;-88
2023/10/20 01:16:48;;;;;;;;;1.40;1.40;;;;;;;;5070926;28;8846;-88
2023/10/20 01:19:16;;;;;;;;;2.20;2.20;;;;;;;;5070481;28;8890;-89
2023/10/20 01:21:43;;;;;;;;;1.40;1.40;;;;;;;;5070336;28;9014;-88
2023/10/20 01:24:13;;;;;;;;;2.40;2.40;;;;;;;;5070803;28;8944;-91
2023/10/20 01:26:43;;;;;;;;;1.80;1.80;;;;;;;;5069744;28;8851;-90
2023/10/20 01:29:12;;;;;;;;;2.00;2.00;;;;;;;;5068529;28;8874;-87
2023/10/20 01:31:39;;;;;;;;;1.00;1.00;;;;;;;;5058078;28;8853;-87
2023/10/20 01:34:06;;;;;;;;;2.20;2.00;;;;;;;;5069995;28;8843;-88
2023/10/20 01:36:35;;;;;;;;;2.20;2.20;;;;;;;;5070383;28;8855;-88
2023/10/20 01:39:02;;;;;;;;;1.80;1.80;;;;;;;;5076640;28;8877;-88
2023/10/20 01:41:32;;;;;;;;;2.40;2.00;;;;;;;;5072661;28;8847;-87
2023/10/20 01:43:59;;;;;;;;;1.40;1.40;;;;;;;;5071587;28;8834;-92
2023/10/20 01:46:27;;;;;;;;;1.60;1.60;;;;;;;;5070848;28;8981;-90
2023/10/20 01:48:54;;;;;;;;;2.00;2.00;;;;;;;;5070374;28;8997;-95
2023/10/20 01:51:22;;;;;;;;;2.00;2.00;;;;;;;;5070909;28;8922;-85
2023/10/20 01:53:49;;;;;;;;;1.00;1.00;;;;;;;;5071720;28;8883;-90
2023/10/20 01:56:16;;;;;;;;;0.00;0.00;;;;;;;;5073564;28;8859;-92
2023/10/20 01:58:47;;;;;;;;;0.60;0.60;;;;;;;;5057084;28;8866;-95
2023/10/20 02:01:14;;;;;;;;;0.00;0.00;;;;;;;;5071533;28;8783;-95
2023/10/20 02:03:41;;;;;;;;;0.80;0.80;;;;;;;;5072562;28;8856;-90
2023/10/20 02:06:09;;;;;;;;;0.00;0.00;;;;;;;;5077652;28;8858;-88
2023/10/20 02:08:39;;;;;;;;;0.00;0.00;;;;;;;;5068833;28;8845;-92
2023/10/20 02:11:06;;;;;;;;;0.00;0.00;;;;;;;;5066466;28;8857;-93
2023/10/20 02:13:35;;;;;;;;;0.00;0.00;;;;;;;;5074161;28;8855;-88
2023/10/20 02:16:04;;;;;;;;;1.00;1.00;;;;;;;;5077704;28;8912;-84
2023/10/20 02:18:34;;;;;;;;;0.50;0.00;;;;;;;;5071658;28;8850;-88
2023/10/20 02:21:03;;;;;;;;;0.25;0.25;;;;;;;;5068633;28;8997;-85
2023/10/20 02:23:30;;;;;;;;;0.00;0.00;;;;;;;;5070677;28;9695;-87
2023/10/20 02:25:59;;;;;;;;;0.00;0.00;;;;;;;;5070743;28;8851;-90
2023/10/20 02:28:26;;;;;;;;;0.50;0.50;;;;;;;;5068193;28;8873;-85
2023/10/20 02:30:54;;;;;;;;;0.00;0.00;;;;;;;;5056073;28;8843;-87
2023/10/20 02:33:22;;;;;;;;;0.20;0.20;;;;;;;;5075170;28;8988;-88
2023/10/20 02:35:50;;;;;;;;;0.00;0.00;;;;;;;;5072653;28;8878;-88
2023/10/20 02:38:17;;;;;;;;;0.75;0.00;;;;;;;;5062251;28;8842;-90
2023/10/20 02:40:50;;;;;;;;;0.00;0.00;;;;;;;;5065187;28;8877;-88
2023/10/20 02:43:18;;;;;;;;;0.00;0.00;;;;;;;;5069440;28;8876;-89
2023/10/20 02:45:49;;;;;;;;;0.00;0.00;;;;;;;;5056237;28;8981;-88
2023/10/20 02:48:16;;;;;;;;;0.00;0.00;;;;;;;;5069375;28;8881;-88
2023/10/20 02:50:45;;;;;;;;;0.00;0.00;;;;;;;;5069482;28;8916;-93
2023/10/20 02:53:13;;;;;;;;;0.00;0.00;;;;;;;;5069562;28;8847;-90
2023/10/20 02:55:41;;;;;;;;;0.00;0.00;;;;;;;;5068673;28;8883;-93
2023/10/20 02:58:10;;;;;;;;;0.00;0.00;;;;;;;;5069065;28;8997;-90
2023/10/20 03:00:40;;;;;;;;;0.00;0.00;;;;;;;;5072116;28;8857;-85
2023/10/20 03:03:09;;;;;;;;;2.00;0.20;;;;;;;;5066354;28;8896;-89
2023/10/20 03:05:36;;;;;;;;;0.80;0.80;;;;;;;;5063508;28;8876;-90
2023/10/20 03:08:06;;;;;;;;;0.00;0.00;;;;;;;;5071185;28;8901;-88
2023/10/20 03:10:33;;;;;;;;;0.00;0.00;;;;;;;;5061981;28;8908;-91
2023/10/20 03:13:02;;;;;;;;;0.00;0.00;;;;;;;;5074530;28;8851;-92
2023/10/20 03:15:29;;;;;;;;;1.00;1.00;;;;;;;;5073957;28;8863;-90
2023/10/20 03:17:56;;;;;;;;;0.00;0.00;;;;;;;;5064848;28;8842;-90
2023/10/20 03:20:28;;;;;;;;;0.00;0.00;;;;;;;;5069597;28;8893;-90
2023/10/20 03:22:55;;;;;;;;;0.00;0.00;;;;;;;;5075618;28;9017;-94
2023/10/20 03:25:24;;;;;;;;;0.00;0.00;;;;;;;;5077101;28;8878;-95
2023/10/20 03:27:52;;;;;;;;;0.00;0.00;;;;;;;;5078283;28;8882;-93
2023/10/20 03:30:19;;;;;;;;;0.00;0.00;;;;;;;;5077115;28;8851;-90
2023/10/20 03:32:49;;;;;;;;;0.00;0.00;;;;;;;;5075846;28;8847;-92
2023/10/20 03:35:17;;;;;;;;;0.50;0.00;;;;;;;;5061789;28;8857;-95
2023/10/20 03:37:44;;;;;;;;;0.60;0.00;;;;;;;;5071802;28;8885;-93
2023/10/20 03:40:16;;;;;;;;;0.00;0.00;;;;;;;;5073011;28;8882;-87
2023/10/20 03:42:45;;;;;;;;;0.00;0.00;;;;;;;;5071904;28;8961;-92
2023/10/20 03:45:14;;;;;;;;;2.25;0.00;;;;;;;;5072351;28;8936;-91
2023/10/20 03:47:43;;;;;;;;;0.00;0.00;;;;;;;;5071071;28;8858;-93
2023/10/20 03:50:15;;;;;;;;;0.00;0.00;;;;;;;;5073445;28;8870;-87
2023/10/20 03:52:45;;;;;;;;;0.00;0.00;;;;;;;;5062777;28;8931;-91
2023/10/20 03:55:14;;;;;;;;;0.25;0.25;;;;;;;;5074161;28;8851;-91
2023/10/20 03:57:44;;;;;;;;;0.00;0.00;;;;;;;;5077714;28;8882;-89
2023/10/20 04:00:20;;;;;;;;;0.00;0.00;;;;;;;;5074941;28;8867;-85
2023/10/20 04:02:48;;;;;;;;;2.00;0.00;;;;;;;;5076119;28;8918;-88
2023/10/20 04:05:16;;;;;;;;;0.00;0.00;;;;;;;;5068913;28;8880;-87
2023/10/20 04:07:43;;;;;;;;;0.00;0.00;;;;;;;;5071622;28;8966;-90
2023/10/20 04:10:10;;;;;;;;;0.00;0.00;;;;;;;;5061816;28;8965;-87
2023/10/20 04:12:41;;;;;;;;;0.00;0.00;;;;;;;;5076296;28;8859;-89
2023/10/20 04:15:14;;;;;;;;;0.00;0.00;;;;;;;;5069401;28;8944;-87
2023/10/20 04:17:43;;;;;;;;;0.00;0.00;;;;;;;;5071267;28;8871;-87
2023/10/20 04:20:17;;;;;;;;;0.00;0.00;;;;;;;;5069463;28;8973;-88
2023/10/20 04:22:49;;;;;;;;;0.00;0.00;;;;;;;;5074590;28;8854;-86
2023/10/20 04:25:17;;;;;;;;;0.00;0.00;;;;;;;;5072444;28;8851;-87
2023/10/20 04:27:50;;;;;;;;;0.00;0.00;;;;;;;;5069694;28;8963;-86
2023/10/20 04:52:58;;;;;;;;;1.00;1.00;;;;;;;;5053844;28;8869;-85
2023/10/20 04:58:13;;;;;;;;;0.25;0.25;;;;;;;;5047988;28;8877;-86
2023/10/20 05:00:42;;;;;;;;;0.00;0.00;;;;;;;;5069155;28;8811;-85
2023/10/20 05:03:17;;;;;;;;;0.00;0.00;;;;;;;;5068836;28;8920;-87
2023/10/20 05:05:53;;;;;;;;;1.50;1.50;;;;;;;;5069833;28;8923;-85
2023/10/20 05:08:23;;;;;;;;;1.25;1.25;;;;;;;;5052879;28;8855;-85
2023/10/20 05:10:51;;;;;;;;;0.75;0.75;;;;;;;;5069877;28;8878;-85
2023/10/20 05:13:19;;;;;;;;;1.00;1.00;;;;;;;;5068222;28;9641;-86
2023/10/20 05:15:47;;;;;;;;;1.75;0.50;;;;;;;;5069510;28;8843;-82
2023/10/20 05:18:20;;;;;;;;;1.00;1.00;;;;;;;;5069959;28;9246;-81
2023/10/20 05:20:48;;;;;;;;;1.50;1.50;;;;;;;;5100668;28;8885;-82
2023/10/20 05:23:18;;;;;;;;;3.00;1.50;;;;;;;;5069093;28;9009;-81
2023/10/20 05:25:48;;;;;;;;;1.00;1.00;;;;;;;;5068583;28;8867;-82
2023/10/20 05:28:17;;;;;;;;;1.00;1.00;;;;;;;;5068726;28;8885;-81
2023/10/20 05:30:45;;;;;;;;;1.00;1.00;;;;;;;;5067642;28;8803;-80
2023/10/20 05:33:14;;;;;;;;;0.25;0.25;;;;;;;;5069749;28;8839;-79
2023/10/20 05:35:46;;;;;;;;;0.00;0.00;;;;;;;;5073070;28;8862;-78
2023/10/20 05:38:13;;;;;;;;;1.00;1.00;;;;;;;;5073828;28;8897;-80
2023/10/20 05:40:41;;;;;;;;;0.25;0.25;;;;;;;;5071612;28;8858;-80
2023/10/20 05:43:11;;;;;;;;;1.50;1.00;;;;;;;;5061225;28;8843;-83
2023/10/20 05:45:39;;;;;;;;;0.50;0.50;;;;;;;;5073832;28;8855;-82
2023/10/20 05:48:07;;;;;;;;;0.00;0.00;;;;;;;;5069143;28;8926;-81
2023/10/20 05:50:40;;;;;;;;;1.00;1.00;;;;;;;;5067748;28;8882;-81
2023/10/20 05:53:08;;;;;;;;;0.75;0.75;;;;;;;;5068393;28;8851;-81
2023/10/20 05:55:36;;;;;;;;;0.50;0.00;;;;;;;;5067555;28;8842;-81
2023/10/20 05:58:06;;;;;;;;;0.00;0.00;;;;;;;;5067813;28;8854;-81
2023/10/20 06:00:33;;;;;;;;;0.00;0.00;;;;;;;;5066996;28;8791;-81
2023/10/20 06:03:00;;;;;;;;;0.00;0.00;;;;;;;;5068192;28;8859;-81
2023/10/20 06:05:28;;;;;;;;;0.00;0.00;;;;;;;;5067462;28;8859;-81
2023/10/20 06:08:01;;;;;;;;;0.25;0.25;;;;;;;;5068069;28;8874;-82
2023/10/20 06:10:30;;;;;;;;;1.00;1.00;;;;;;;;5055420;28;8851;-81
2023/10/20 06:12:59;;;;;;;;;1.00;1.00;;;;;;;;5068169;28;8855;-81
2023/10/20 06:15:31;;;;;;;;;1.00;0.75;;;;;;;;5067445;28;8946;-79
2023/10/20 06:18:02;;;;;;;;;1.00;1.00;;;;;;;;5067221;28;8858;-82
2023/10/20 06:20:31;;;;;;;;;1.00;1.00;;;;;;;;5068191;28;9009;-79
2023/10/20 06:23:00;;;;;;;;;1.00;1.00;;;;;;;;5066225;28;8838;-79
2023/10/20 06:25:28;;;;;;;;;1.00;1.00;;;;;;;;5067857;28;8871;-78
2023/10/20 06:28:06;;;;;;;;;1.25;1.25;;;;;;;;5070225;28;8981;-81
2023/10/20 06:30:33;;;;;;;;;1.00;1.00;;;;;;;;5066763;28;8872;-79
2023/10/20 06:33:16;;;;;;;;;1.00;1.00;;;;;;;;5066698;28;8902;-80
2023/10/20 06:35:50;;;;;;;;;1.00;1.00;;;;;;;;5067351;28;8854;-81
2023/10/20 06:38:28;;;;;;;;;0.75;0.75;;;;;;;;5060148;28;8888;-81
2023/10/20 06:40:59;;;;;;;;;1.00;1.00;;;;;;;;5064699;28;8837;-79
2023/10/20 06:43:26;;;;;;;;;3.00;2.00;;;;;;;;5067473;28;9001;-79
2023/10/20 06:46:04;;;;;;;;;1.25;1.25;;;;;;;;5065860;28;8871;-76
2023/10/20 06:48:34;;;;;;;;;2.00;2.00;;;;;;;;5067790;28;8851;-77
2023/10/20 06:51:04;;;;;;;;;1.25;1.25;;;;;;;;5066898;28;8994;-76
2023/10/20 06:53:31;;;;;;;;;1.00;1.00;;;;;;;;5067171;28;9196;-76
2023/10/20 06:56:01;;;;;;;;;1.25;1.25;;;;;;;;5065621;28;9664;-77
2023/10/20 06:58:29;;;;;;;;;2.75;1.50;;;;;;;;5067633;28;8920;-78
2023/10/20 07:00:56;;;;;;;;;0.75;0.75;;;;;;;;5068368;28;8818;-80
2023/10/20 07:03:23;;;;;;;;;1.00;1.00;;;;;;;;5065793;28;9634;-79
2023/10/20 07:05:51;;;;;;;;;1.00;1.00;;;;;;;;5056357;28;8870;-78
2023/10/20 07:08:18;;;;;;;;;2.00;2.00;;;;;;;;5066472;28;8891;-79
2023/10/20 07:10:46;;;;;;;;;3.00;1.00;;;;;;;;5067473;28;9635;-78
2023/10/20 07:13:14;;;;;;;;;1.75;1.75;;;;;;;;5065347;28;8919;-77
2023/10/20 07:15:42;;;;;;;;;2.00;2.00;;;;;;;;5068997;28;8855;-75
2023/10/20 07:18:11;;;;;;;;;2.00;1.00;;;;;;;;5068046;28;8977;-77
2023/10/20 07:20:39;;;;;;;;;3.50;2.00;;;;;;;;5071119;28;8851;-80
2023/10/20 07:23:06;;;;;;;;;2.25;2.25;;;;;;;;5070270;28;8857;-79
2023/10/20 07:25:33;;;;;;;;;4.75;4.75;;;;;;;;5071388;28;8935;-79
2023/10/20 07:28:01;;;;;;;;;2.25;2.25;;;;;;;;5070579;28;8971;-78
2023/10/20 07:30:31;;;;;;;;;1.00;1.00;;;;;;;;5060280;28;8794;-76
2023/10/20 07:32:58;;;;;;;;;0.00;0.00;;;;;;;;5077037;28;8839;-76
2023/10/20 07:35:25;;;;;;;;;0.75;0.75;;;;;;;;5067366;28;8863;-78
2023/10/20 07:37:53;;;;;;;;;1.00;1.00;;;;;;;;5066748;28;8861;-79
2023/10/20 07:40:20;;;;;;;;;1.00;1.00;;;;;;;;5067110;28;8873;-79
2023/10/20 07:42:47;;;;;;;;;0.50;0.50;;;;;;;;5066264;28;8877;-79
2023/10/20 07:45:14;;;;;;;;;1.00;1.00;;;;;;;;5066873;28;9008;-79
2023/10/20 07:47:43;;;;;;;;;1.00;1.00;;;;;;;;5066663;28;9636;-79
2023/10/20 07:50:11;;;;;;;;;2.00;2.00;;;;;;;;5066355;28;8870;-79
2023/10/20 07:52:38;;;;;;;;;4.00;2.00;;;;;;;;5070189;28;8865;-79
2023/10/20 07:55:06;;;;;;;;;1.00;1.00;;;;;;;;5069780;28;8862;-78
2023/10/20 07:57:35;;;;;;;;;2.00;2.00;;;;;;;;5071221;28;8854;-79
2023/10/20 08:00:03;;;;;;;;;1.75;1.75;;;;;;;;5071623;28;8905;-78
2023/10/20 08:02:31;;;;;;;;;3.00;2.00;;;;;;;;5071678;28;8807;-80
2023/10/20 08:05:00;;;;;;;;;2.00;2.00;;;;;;;;5069992;28;8912;-80
2023/10/20 08:07:29;;;;;;;;;3.00;3.00;;;;;;;;5070464;28;8916;-80
2023/10/20 08:09:56;;;;;;;;;3.50;3.50;;;;;;;;5056604;28;8873;-79
2023/10/20 08:12:23;;;;;;;;;2.25;2.25;;;;;;;;5069909;28;8888;-79
2023/10/20 08:14:51;;;;;;;;;2.75;2.75;;;;;;;;5069200;28;8883;-79
2023/10/20 08:17:18;;;;;;;;;3.00;3.00;;;;;;;;5069766;28;8846;-80
2023/10/20 08:19:46;;;;;;;;;3.75;3.75;;;;;;;;5068136;28;8854;-79
2023/10/20 08:22:14;;;;;;;;;1.00;1.00;;;;;;;;5069906;28;9784;-80
2023/10/20 08:24:41;;;;;;;;;3.00;3.00;;;;;;;;5069444;28;8862;-79
2023/10/20 08:27:09;;;;;;;;;3.00;3.00;;;;;;;;5069792;28;8862;-79
2023/10/20 08:29:36;;;;;;;;;4.50;3.00;;;;;;;;5069107;28;8843;-79
2023/10/20 08:32:04;;;;;;;;;3.00;2.75;;;;;;;;5068657;28;8830;-79
2023/10/20 08:34:32;;;;;;;;;4.00;4.00;;;;;;;;5069114;28;8873;-78
2023/10/20 08:37:01;;;;;;;;;3.00;3.00;;;;;;;;5062985;28;8869;-79
2023/10/20 08:39:34;;;;;;;;;3.00;3.00;;;;;;;;5069188;28;8847;-79
2023/10/20 08:42:02;;;;;;;;;3.75;3.75;;;;;;;;5068927;28;8862;-79
2023/10/20 08:44:30;;;;;;;;;5.25;4.00;;;;;;;;5069092;28;8885;-79
2023/10/20 08:46:59;;;;;;;;;3.25;3.25;;;;;;;;5073197;28;8875;-79
2023/10/20 08:49:27;;;;;;;;;3.25;3.25;;;;;;;;5069613;28;8882;-79
2023/10/20 08:51:55;;;;;;;;;4.00;4.00;;;;;;;;5069233;28;8973;-79
2023/10/20 08:54:26;;;;;;;;;3.00;3.00;;;;;;;;5057340;28;8882;-79
2023/10/20 08:56:56;;;;;;;;;4.00;4.00;;;;;;;;5071963;28;8855;-78
2023/10/20 08:59:24;;;;;;;;;3.00;3.00;;;;;;;;5072733;28;8855;-79
2023/10/20 09:01:52;;;;;;;;;4.75;4.75;;;;;;;;5072235;28;8905;-79
2023/10/20 09:04:23;;;;;;;;;2.50;2.50;;;;;;;;5075405;28;9397;-78
2023/10/20 09:06:50;;;;;;;;;2.00;2.00;;;;;;;;5073664;28;8981;-79
2023/10/20 09:09:19;;;;;;;;;7.25;4.00;;;;;;;;5073384;28;8891;-79
2023/10/20 09:11:46;;;;;;;;;5.00;5.00;;;;;;;;5071220;28;8830;-80
2023/10/20 09:14:15;;;;;;;;;5.25;4.00;;;;;;;;5068532;28;8888;-79
2023/10/20 09:16:43;;;;;;;;;4.00;4.00;;;;;;;;5068358;28;8843;-79
2023/10/20 09:19:12;;;;;;;;;4.75;4.75;;;;;;;;5068896;28;8970;-79
2023/10/20 09:21:40;;;;;;;;;4.00;4.00;;;;;;;;5068374;28;8881;-79
2023/10/20 09:24:09;;;;;;;;;4.00;4.00;;;;;;;;5068700;28;8871;-79
2023/10/20 09:26:37;;;;;;;;;3.75;3.75;;;;;;;;5068431;28;9723;-79
2023/10/20 09:29:06;;;;;;;;;3.25;3.25;;;;;;;;5068725;28;8866;-79
2023/10/20 09:31:35;;;;;;;;;3.75;3.75;;;;;;;;5066516;28;8814;-80
2023/10/20 09:34:04;;;;;;;;;3.00;3.00;;;;;;;;5067613;28;8866;-78
2023/10/20 09:36:32;;;;;;;;;4.00;2.25;;;;;;;;5069528;28;8920;-80
2023/10/20 09:39:03;;;;;;;;;4.00;4.00;;;;;;;;5065214;28;9875;-78
2023/10/20 09:41:33;;;;;;;;;4.50;3.75;;;;;;;;5071150;28;8862;-79
2023/10/20 09:44:05;;;;;;;;;2.25;2.25;;;;;;;;5068253;28;9609;-79
2023/10/20 09:46:52;;;;;;;;;2.25;2.25;;;;;;;;5068699;28;9641;-78
2023/10/20 09:49:22;;;;;;;;;3.00;3.00;;;;;;;;5067934;28;9244;-79
2023/10/20 09:51:50;;;;;;;;;2.00;2.00;;;;;;;;5068120;28;8846;-78
2023/10/20 09:54:21;;;;;;;;;1.25;1.25;;;;;;;;5061985;28;8879;-79
2023/10/20 09:56:49;;;;;;;;;1.50;1.50;;;;;;;;5048971;28;8853;-79
2023/10/20 09:59:21;;;;;;;;;2.00;2.00;;;;;;;;5061067;28;8933;-79
2023/10/20 10:01:50;;;;;;;;;1.00;1.00;;;;;;;;5060884;28;8868;-79
2023/10/20 10:04:24;;;;;;;;;1.00;1.00;;;;;;;;5049069;28;8968;-80
2023/10/20 10:06:52;;;;;;;;;0.75;0.75;;;;;;;;5062084;28;8855;-79
2023/10/20 10:09:19;;;;;;;;;1.00;1.00;;;;;;;;5049263;28;8853;-80
2023/10/20 10:11:47;;;;;;;;;0.75;0.75;;;;;;;;5064726;28;8835;-79
2023/10/20 10:14:21;;;;;;;;;1.50;1.50;;;;;;;;5067765;28;8831;-81
2023/10/20 10:16:54;;;;;;;;;1.00;1.00;;;;;;;;5067259;28;8850;-80
2023/10/20 10:19:24;;;;;;;;;0.75;0.75;;;;;;;;5068826;28;8916;-77
2023/10/20 10:21:57;;;;;;;;;1.50;1.50;;;;;;;;5066035;28;8866;-79
2023/10/20 10:24:25;;;;;;;;;2.50;1.00;;;;;;;;5067434;28;8863;-80
2023/10/20 10:26:54;;;;;;;;;1.00;1.00;;;;;;;;5067884;28;8834;-77
2023/10/20 10:29:22;;;;;;;;;1.50;1.50;;;;;;;;5067504;28;9329;-81
2023/10/20 10:31:49;;;;;;;;;1.33;1.33;;;;;;;;5067365;28;8917;-78
2023/10/20 10:34:19;;;;;;;;;1.50;1.50;;;;;;;;5066200;28;8847;-79
2023/10/20 10:36:47;;;;;;;;;2.50;2.50;;;;;;;;5067635;28;9709;-80
2023/10/20 10:39:27;;;;;;;;;3.00;3.00;;;;;;;;5068606;28;8870;-77
2023/10/20 10:41:54;;;;;;;;;2.00;2.00;;;;;;;;5070608;28;8973;-75
2023/10/20 10:44:23;;;;;;;;;2.00;2.00;;;;;;;;5069416;28;8868;-76
2023/10/20 10:46:51;;;;;;;;;2.25;2.25;;;;;;;;5071714;28;8855;-76
2023/10/20 10:49:20;;;;;;;;;3.50;2.75;;;;;;;;5070763;28;8997;-76
2023/10/20 10:51:52;;;;;;;;;1.75;1.75;;;;;;;;5072900;28;8867;-79
2023/10/20 10:54:19;;;;;;;;;3.00;1.50;;;;;;;;5071020;28;8920;-75
2023/10/20 10:56:47;;;;;;;;;2.00;2.00;;;;;;;;5066962;28;8847;-75
2023/10/20 10:59:14;;;;;;;;;2.00;2.00;;;;;;;;5067531;28;8872;-76
2023/10/20 11:01:41;;;;;;;;;3.00;2.00;;;;;;;;5066219;28;8799;-75
2023/10/20 11:04:11;;;;;;;;;3.25;2.75;;;;;;;;5066261;28;8971;-75
2023/10/20 11:06:39;;;;;;;;;2.00;2.00;;;;;;;;5064332;28;8850;-76
2023/10/20 11:09:08;;;;;;;;;0.25;0.25;;;;;;;;5058897;28;8891;-74
2023/10/20 11:11:42;;;;;;;;;2.00;2.00;;;;;;;;5062372;28;8847;-73
2023/10/20 11:14:11;;;;;;;;;1.00;1.00;;;;;;;;5066930;28;8894;-75
2023/10/20 11:16:38;;;;;;;;;4.00;2.00;;;;;;;;5066424;28;8799;-73
2023/10/20 11:19:07;;;;;;;;;2.25;2.25;;;;;;;;5065708;28;8862;-74
2023/10/20 11:21:49;;;;;;;;;2.50;1.25;;;;;;;;5066337;28;8878;-76
2023/10/20 11:24:28;;;;;;;;;4.50;2.00;;;;;;;;5066794;28;8843;-78
2023/10/20 11:27:00;;;;;;;;;4.00;1.20;;;;;;;;5059084;28;8919;-79
2023/10/20 11:29:31;;;;;;;;;0.20;0.20;;;;;;;;5068021;28;8835;-77
2023/10/20 11:32:00;;;;;;;;;4.60;3.00;;;;;;;;5066674;28;9701;-77
2023/10/20 11:34:27;;;;;;;;;2.00;2.00;;;;;;;;5070034;28;8833;-79
2023/10/20 11:36:56;;;;;;;;;2.00;2.00;;;;;;;;5069181;28;8839;-77
2023/10/20 11:39:27;;;;;;;;;1.40;1.40;;;;;;;;5067549;28;8993;-77
2023/10/20 11:41:54;;;;;;;;;3.50;2.50;;;;;;;;5068929;28;8854;-77
2023/10/20 11:44:24;;;;;;;;;1.20;1.20;;;;;;;;5069110;28;8930;-77
2023/10/20 11:46:52;;;;;;;;;2.00;2.00;;;;;;;;5070035;28;8839;-77
2023/10/20 11:49:19;;;;;;;;;1.20;0.60;;;;;;;;5068342;28;8843;-76
2023/10/20 11:51:46;;;;;;;;;2.20;2.20;;;;;;;;5070488;28;9660;-78
2023/10/20 11:54:15;;;;;;;;;2.00;2.00;;;;;;;;5067346;28;8880;-76
2023/10/20 11:56:43;;;;;;;;;2.00;2.00;;;;;;;;5069333;28;8866;-75
2023/10/20 11:59:11;;;;;;;;;2.00;2.00;;;;;;;;5069143;28;8863;-79
2023/10/20 12:01:39;;;;;;;;;2.40;1.00;;;;;;;;5067581;28;8800;-77
2023/10/20 12:04:08;;;;;;;;;1.00;1.00;;;;;;;;5067988;28;8989;-77
2023/10/20 12:06:36;;;;;;;;;2.40;2.40;;;;;;;;5067679;28;8920;-77
2023/10/20 12:09:06;;;;;;;;;3.00;1.80;;;;;;;;5052168;28;8849;-78
2023/10/20 12:11:36;;;;;;;;;2.00;1.60;;;;;;;;5063464;28;8851;-77
2023/10/20 12:14:06;;;;;;;;;2.20;2.20;;;;;;;;5069608;28;8877;-76
2023/10/20 12:16:33;;;;;;;;;1.80;1.80;;;;;;;;5067890;28;8996;-77
2023/10/20 12:19:03;;;;;;;;;3.00;2.00;;;;;;;;5070175;28;8855;-77
2023/10/20 12:21:31;;;;;;;;;1.20;1.20;;;;;;;;5069686;28;8867;-78
2023/10/20 12:23:58;;;;;;;;;1.80;1.00;;;;;;;;5071936;28;8854;-79
2023/10/20 12:26:26;;;;;;;;;0.80;0.80;;;;;;;;5072963;28;8969;-78
2023/10/20 12:28:56;;;;;;;;;1.20;1.20;;;;;;;;5072596;28;8838;-77
2023/10/20 12:31:25;;;;;;;;;1.60;1.60;;;;;;;;5071087;28;9513;-77
2023/10/20 12:33:52;;;;;;;;;1.80;1.80;;;;;;;;5073785;28;8966;-79
2023/10/20 12:36:21;;;;;;;;;7.00;1.80;;;;;;;;5068578;28;8859;-79
2023/10/20 12:38:48;;;;;;;;;1.80;1.80;;;;;;;;5069451;28;8855;-77
2023/10/20 12:41:16;;;;;;;;;2.60;2.60;;;;;;;;5067039;28;8855;-77
2023/10/20 12:43:47;;;;;;;;;3.00;1.40;;;;;;;;5069775;28;8862;-80
2023/10/20 12:46:15;;;;;;;;;3.80;3.00;;;;;;;;5068690;28;8842;-79
2023/10/20 12:48:43;;;;;;;;;3.80;1.80;;;;;;;;5068683;28;8887;-79
2023/10/20 12:51:10;;;;;;;;;1.60;1.60;;;;;;;;5057125;28;8843;-78
2023/10/20 12:53:37;;;;;;;;;2.40;1.20;;;;;;;;5066570;28;8888;-77
2023/10/20 12:56:06;;;;;;;;;1.00;0.20;;;;;;;;5067721;28;8965;-77
2023/10/20 12:58:36;;;;;;;;;3.00;1.40;;;;;;;;5065359;28;8937;-76
2023/10/20 13:01:03;;;;;;;;;3.00;3.00;;;;;;;;5069502;28;9585;-78
2023/10/20 13:03:34;;;;;;;;;2.00;2.00;;;;;;;;5066326;28;8854;-79
2023/10/20 13:06:06;;;;;;;;;3.20;3.20;;;;;;;;5071216;28;8896;-77
2023/10/20 13:08:33;;;;;;;;;4.00;4.00;;;;;;;;5065763;28;8857;-77
2023/10/20 13:11:03;;;;;;;;;2.20;2.20;;;;;;;;5060090;28;8880;-77
2023/10/20 13:13:32;;;;;;;;;2.20;2.20;;;;;;;;5068685;28;9675;-77
2023/10/20 13:16:00;;;;;;;;;2.80;2.80;;;;;;;;5068896;28;8985;-77
2023/10/20 13:18:28;;;;;;;;;6.00;3.60;;;;;;;;5068561;28;8849;-78
2023/10/20 13:20:56;;;;;;;;;2.60;2.60;;;;;;;;5068758;28;9011;-78
2023/10/20 13:23:23;;;;;;;;;2.80;2.80;;;;;;;;5067691;28;8870;-76
2023/10/20 13:25:52;;;;;;;;;3.60;3.60;;;;;;;;5067682;28;8960;-79
2023/10/20 13:28:21;;;;;;;;;2.20;2.20;;;;;;;;5066722;28;8870;-79
2023/10/20 13:31:03;;;;;;;;;2.40;1.80;;;;;;;;5068389;28;8791;-78
2023/10/20 13:33:31;;;;;;;;;4.00;3.00;;;;;;;;5069024;28;8983;-80
2023/10/20 13:36:05;;;;;;;;;3.00;3.00;;;;;;;;5066450;28;8850;-78
2023/10/20 13:38:35;;;;;;;;;4.60;2.20;;;;;;;;5067432;28;9733;-79
2023/10/20 13:41:03;;;;;;;;;4.00;3.20;;;;;;;;5066597;28;9645;-80
2023/10/20 13:43:30;;;;;;;;;2.20;2.20;;;;;;;;5067120;28;8876;-79
2023/10/20 13:45:58;;;;;;;;;2.00;2.00;;;;;;;;5067964;28;8981;-79
2023/10/20 13:48:25;;;;;;;;;1.20;1.20;;;;;;;;5067453;28;8893;-81
2023/10/20 13:50:53;;;;;;;;;4.20;4.20;;;;;;;;5068264;28;8997;-85
2023/10/20 13:53:21;;;;;;;;;3.20;1.40;;;;;;;;5068856;28;8862;-80
2023/10/20 13:55:51;;;;;;;;;1.00;1.00;;;;;;;;5067767;28;8866;-79
2023/10/20 13:58:19;;;;;;;;;1.00;1.00;;;;;;;;5069060;28;8975;-80
2023/10/20 14:00:46;;;;;;;;;4.00;1.60;;;;;;;;5065852;28;8832;-80
2023/10/20 14:03:14;;;;;;;;;1.80;1.80;;;;;;;;5068635;28;9606;-77
2023/10/20 14:05:41;;;;;;;;;1.80;1.80;;;;;;;;5069138;28;8846;-82
2023/10/20 14:08:11;;;;;;;;;2.00;0.60;;;;;;;;5074546;28;8886;-80
2023/10/20 14:10:40;;;;;;;;;3.00;3.00;;;;;;;;5058995;28;8874;-81
2023/10/20 14:13:07;;;;;;;;;2.40;2.40;;;;;;;;5068859;28;8867;-74
2023/10/20 14:15:34;;;;;;;;;1.20;1.20;;;;;;;;5072671;28;8878;-79
2023/10/20 14:18:04;;;;;;;;;2.00;2.00;;;;;;;;5070335;28;8847;-74
2023/10/20 14:20:31;;;;;;;;;3.20;3.20;;;;;;;;5068478;28;8859;-76
2023/10/20 14:22:58;;;;;;;;;2.00;2.00;;;;;;;;5066950;28;8859;-83
2023/10/20 14:25:26;;;;;;;;;2.80;1.00;;;;;;;;5067198;28;9265;-75
2023/10/20 14:27:54;;;;;;;;;1.00;1.00;;;;;;;;5066622;28;8993;-76
2023/10/20 14:30:24;;;;;;;;;0.00;0.00;;;;;;;;5057087;28;8847;-76
2023/10/20 14:32:51;;;;;;;;;0.00;0.00;;;;;;;;5065154;28;8845;-78
2023/10/20 14:35:19;;;;;;;;;0.00;0.00;;;;;;;;5066659;28;8869;-81
2023/10/20 14:37:46;;;;;;;;;0.00;0.00;;;;;;;;5065964;28;9526;-82
2023/10/20 14:40:14;;;;;;;;;1.00;1.00;;;;;;;;5066669;28;8869;-81
2023/10/20 14:42:41;;;;;;;;;0.20;0.20;;;;;;;;5066406;28;8928;-74
2023/10/20 14:45:11;;;;;;;;;0.00;0.00;;;;;;;;5067375;28;8846;-78
2023/10/20 14:47:38;;;;;;;;;0.00;0.00;;;;;;;;5065105;28;8862;-80
2023/10/20 14:50:06;;;;;;;;;0.00;0.00;;;;;;;;5067469;28;8863;-78
2023/10/20 14:52:33;;;;;;;;;0.00;0.00;;;;;;;;5066655;28;8859;-76
2023/10/20 14:55:01;;;;;;;;;0.00;0.00;;;;;;;;5066387;28;8861;-75
2023/10/20 14:57:30;;;;;;;;;0.00;0.00;;;;;;;;5063345;28;8993;-78
2023/10/20 14:59:58;;;;;;;;;0.00;0.00;;;;;;;;5068172;28;9641;-74
2023/10/20 15:02:27;;;;;;;;;0.00;0.00;;;;;;;;5059430;28;9561;-77
2023/10/20 15:04:54;;;;;;;;;0.80;0.00;;;;;;;;5069637;28;8875;-75
2023/10/20 15:07:22;;;;;;;;;0.00;0.00;;;;;;;;5070841;28;8865;-75
2023/10/20 15:09:49;;;;;;;;;0.00;0.00;;;;;;;;5057180;28;8838;-75
2023/10/20 15:12:26;;;;;;;;;0.00;0.00;;;;;;;;5055579;28;8857;-78
2023/10/20 15:14:53;;;;;;;;;0.00;0.00;;;;;;;;5069145;28;8837;-78
2023/10/20 15:17:21;;;;;;;;;0.00;0.00;;;;;;;;5068929;28;8846;-77
2023/10/20 15:19:52;;;;;;;;;0.00;0.00;;;;;;;;5070042;28;8847;-74
2023/10/20 15:22:20;;;;;;;;;0.20;0.00;;;;;;;;5069039;28;8859;-73
2023/10/20 15:24:51;;;;;;;;;0.00;0.00;;;;;;;;5065689;28;8854;-75
2023/10/20 15:27:19;;;;;;;;;1.40;0.00;;;;;;;;5062624;28;8929;-73
2023/10/20 15:29:48;;;;;;;;;0.00;0.00;;;;;;;;5069291;28;9626;-73
2023/10/20 15:32:17;;;;;;;;;0.00;0.00;;;;;;;;5069771;28;8823;-72